createdAt,value
2022-12-01T00:01:36.002Z,6.46
2022-12-01T00:04:04.165Z,6.61
2022-12-01T00:06:32.432Z,6.69
2022-12-01T00:09:20.023Z,6.70
2022-12-01T00:11:48.515Z,6.65
2022-12-01T00:14:17.697Z,6.64
2022-12-01T00:31:27.666Z,6.52
2022-12-01T00:33:55.859Z,6.42
2022-12-01T00:51:25.978Z,6.53
2022-12-01T01:24:47.814Z,6.62
2022-12-01T01:27:17.465Z,6.54
2022-12-01T01:29:45.506Z,6.51
2022-12-01T01:32:13.891Z,6.39
2022-12-01T01:34:41.892Z,6.41
2022-12-01T01:37:09.962Z,6.41
2022-12-01T01:39:37.830Z,6.67
2022-12-01T01:42:05.862Z,6.78
2022-12-01T01:44:52.560Z,6.87
2022-12-01T01:47:23.031Z,6.78
2022-12-01T01:49:51.206Z,6.92
2022-12-01T02:21:05.303Z,6.32
2022-12-01T02:28:21.063Z,6.58
2022-12-01T02:37:17.536Z,6.60
2022-12-01T02:44:01.948Z,6.38
2022-12-01T03:14:43.686Z,6.68
2022-12-01T03:36:38.804Z,6.43
2022-12-01T04:05:47.213Z,5.91
2022-12-01T04:11:33.699Z,4.91
2022-12-01T04:23:06.325Z,5.34
2022-12-01T04:42:53.018Z,5.24
2022-12-01T04:52:36.249Z,5.88
2022-12-01T04:58:40.001Z,5.58
2022-12-01T05:01:56.028Z,5.68
2022-12-01T05:16:42.441Z,5.62
2022-12-01T05:19:51.155Z,5.80
2022-12-01T05:34:40.300Z,6.11
2022-12-01T05:49:37.832Z,5.92
2022-12-01T05:52:07.319Z,5.92
2022-12-01T05:54:40.111Z,6.05
2022-12-01T05:57:11.132Z,6.07
2022-12-01T05:59:39.320Z,6.15
2022-12-01T06:02:10.778Z,6.22
2022-12-01T06:04:39.659Z,6.05
2022-12-01T06:07:07.942Z,5.98
2022-12-01T06:09:48.007Z,6.07
2022-12-01T06:12:16.565Z,6.15
2022-12-01T06:14:45.200Z,6.13
2022-12-01T06:17:15.147Z,5.72
2022-12-01T06:19:48.562Z,5.65
2022-12-01T06:22:20.106Z,5.43
2022-12-01T06:24:51.836Z,5.34
2022-12-01T06:27:21.123Z,5.45
2022-12-01T06:29:51.432Z,5.54
2022-12-01T06:32:23.033Z,5.41
2022-12-01T06:35:01.883Z,5.40
2022-12-01T06:37:37.386Z,5.34
2022-12-01T06:40:11.075Z,5.58
2022-12-01T06:42:39.967Z,5.41
2022-12-01T06:45:09.178Z,5.51
2022-12-01T06:47:38.019Z,5.57
2022-12-01T06:52:59.415Z,5.51
2022-12-01T06:56:10.505Z,5.30
2022-12-01T06:58:39.307Z,5.21
2022-12-01T07:01:10.142Z,5.30
2022-12-01T07:03:42.956Z,4.99
2022-12-01T07:06:13.077Z,5.01
2022-12-01T07:08:55.556Z,4.74
2022-12-01T07:11:25.343Z,4.73
2022-12-01T07:16:43.352Z,4.63
2022-12-01T07:19:15.083Z,4.88
2022-12-01T07:24:28.768Z,4.91
2022-12-01T07:27:06.533Z,4.96
2022-12-01T07:29:41.929Z,5.16
2022-12-01T07:32:17.361Z,5.10
2022-12-01T07:34:49.442Z,5.17
2022-12-01T07:37:18.830Z,5.35
2022-12-01T07:39:55.005Z,5.39
2022-12-01T07:42:51.240Z,5.21
2022-12-01T07:45:54.796Z,5.18
2022-12-01T07:48:33.226Z,4.98
2022-12-01T07:51:05.605Z,5.26
2022-12-01T07:56:28.256Z,5.28
2022-12-01T07:59:06.807Z,5.58
2022-12-01T08:01:39.164Z,5.85
2022-12-01T08:04:18.663Z,5.47
2022-12-01T08:06:50.834Z,5.53
2022-12-01T08:09:18.738Z,5.31
2022-12-01T08:11:47.445Z,4.87
2022-12-01T08:17:29.499Z,4.89
2022-12-01T08:22:50.503Z,5.32
2022-12-01T08:25:19.828Z,5.56
2022-12-01T08:27:49.763Z,5.65
2022-12-01T08:33:19.612Z,5.61
2022-12-01T08:35:55.774Z,6.06
2022-12-01T08:38:24.105Z,5.82
2022-12-01T08:41:10.272Z,5.38
2022-12-01T08:43:57.877Z,5.51
2022-12-01T08:46:40.285Z,5.53
2022-12-01T08:49:11.588Z,5.70
2022-12-01T08:51:40.738Z,5.65
2022-12-01T08:59:46.277Z,5.73
2022-12-01T09:02:25.559Z,5.50
2022-12-01T09:04:54.757Z,5.64
2022-12-01T09:07:26.881Z,5.99
2022-12-01T09:09:55.467Z,6.12
2022-12-01T09:12:27.056Z,6.29
2022-12-01T09:17:46.272Z,6.14
2022-12-01T09:20:35.570Z,5.98
2022-12-01T09:26:13.786Z,6.16
2022-12-01T09:28:46.530Z,6.51
2022-12-01T09:34:16.774Z,6.15
2022-12-01T09:36:46.499Z,6.30
2022-12-01T09:39:18.875Z,6.45
2022-12-01T09:44:39.112Z,7.09
2022-12-01T09:47:19.237Z,7.14
2022-12-01T09:49:56.125Z,7.54
2022-12-01T09:52:27.760Z,7.59
2022-12-01T09:54:59.502Z,7.82
2022-12-01T09:57:40.584Z,7.93
2022-12-01T10:00:26.730Z,7.92
2022-12-01T10:03:22.566Z,8.33
2022-12-01T10:14:54.156Z,8.10
2022-12-01T10:20:22.975Z,8.19
2022-12-01T10:23:19.089Z,8.54
2022-12-01T10:25:54.571Z,8.31
2022-12-01T10:28:32.356Z,8.09
2022-12-01T10:31:13.532Z,8.47
2022-12-01T10:33:52.059Z,8.79
2022-12-01T10:36:20.329Z,8.50
2022-12-01T10:38:55.954Z,8.45
2022-12-01T10:41:33.798Z,8.77
2022-12-01T10:44:07.717Z,7.45
2022-12-01T10:46:39.025Z,7.59
2022-12-01T10:49:16.086Z,7.75
2022-12-01T10:52:09.656Z,7.45
2022-12-01T10:54:43.741Z,8.09
2022-12-01T10:57:30.661Z,8.41
2022-12-01T11:00:36.084Z,7.82
2022-12-01T11:03:19.890Z,7.69
2022-12-01T11:05:54.379Z,7.37
2022-12-01T11:08:26.251Z,7.14
2022-12-01T11:13:40.083Z,7.16
2022-12-01T11:16:18.381Z,6.63
2022-12-01T11:21:32.015Z,6.63
2022-12-01T11:24:18.619Z,6.70
2022-12-01T11:26:49.897Z,7.00
2022-12-01T11:32:21.032Z,7.35
2022-12-01T11:34:53.315Z,7.75
2022-12-01T11:37:24.860Z,7.83
2022-12-01T11:39:55.050Z,8.01
2022-12-01T11:45:28.522Z,7.83
2022-12-01T11:48:01.316Z,7.62
2022-12-01T11:50:36.734Z,7.47
2022-12-01T11:53:12.705Z,7.16
2022-12-01T11:55:49.451Z,6.83
2022-12-01T11:58:30.466Z,7.42
2022-12-01T12:01:07.226Z,7.38
2022-12-01T12:03:47.185Z,7.48
2022-12-01T12:09:37.286Z,7.71
2022-12-01T12:12:31.492Z,7.63
2022-12-01T12:18:02.622Z,7.45
2022-12-01T12:20:52.288Z,7.34
2022-12-01T12:26:19.026Z,7.29
2022-12-01T12:28:56.418Z,7.35
2022-12-01T12:31:42.137Z,7.31
2022-12-01T12:34:25.801Z,7.55
2022-12-01T12:37:01.405Z,7.82
2022-12-01T12:39:52.351Z,7.64
2022-12-01T12:42:25.069Z,7.58
2022-12-01T12:44:57.383Z,7.50
2022-12-01T12:47:46.465Z,7.09
2022-12-01T12:50:27.469Z,7.71
2022-12-01T12:52:59.413Z,7.33
2022-12-01T12:55:31.774Z,6.65
2022-12-01T12:58:09.511Z,6.60
2022-12-01T13:00:54.042Z,6.51
2022-12-01T13:03:33.905Z,6.69
2022-12-01T13:06:12.334Z,7.67
2022-12-01T13:08:47.583Z,7.70
2022-12-01T13:11:28.582Z,7.80
2022-12-01T13:13:59.606Z,6.69
2022-12-01T13:16:32.406Z,6.32
2022-12-01T13:19:06.364Z,6.87
2022-12-01T13:21:37.648Z,7.90
2022-12-01T13:24:09.539Z,8.10
2022-12-01T13:26:41.800Z,9.30
2022-12-01T13:32:06.842Z,10.37
2022-12-01T13:34:46.381Z,7.69
2022-12-01T13:37:25.055Z,7.32
2022-12-01T13:40:16.351Z,9.10
2022-12-01T13:43:10.428Z,8.48
2022-12-01T13:45:41.224Z,8.96
2022-12-01T13:48:29.014Z,8.78
2022-12-01T13:51:01.365Z,9.37
2022-12-01T13:53:41.983Z,8.12
2022-12-01T13:56:28.576Z,7.98
2022-12-01T13:59:00.343Z,7.39
2022-12-01T14:01:47.789Z,6.94
2022-12-01T14:04:24.969Z,7.06
2022-12-01T14:07:30.483Z,6.39
2022-12-01T14:13:03.750Z,6.33
2022-12-01T14:16:00.236Z,6.26
2022-12-01T14:21:46.923Z,6.58
2022-12-01T14:24:24.292Z,6.34
2022-12-01T14:32:42.836Z,6.03
2022-12-01T14:35:15.718Z,6.16
2022-12-01T14:37:52.666Z,6.12
2022-12-01T14:43:34.992Z,6.76
2022-12-01T14:48:55.699Z,6.67
2022-12-01T14:51:38.828Z,6.43
2022-12-01T14:54:22.666Z,6.47
2022-12-01T15:03:32.691Z,6.18
2022-12-01T15:06:03.789Z,6.34
2022-12-01T15:08:53.437Z,6.20
2022-12-01T15:11:27.073Z,5.86
2022-12-01T15:13:57.456Z,5.70
2022-12-01T15:16:45.573Z,5.74
2022-12-01T15:19:34.573Z,5.65
2022-12-01T15:22:10.153Z,5.70
2022-12-01T15:24:48.379Z,5.77
2022-12-01T15:27:34.472Z,5.88
2022-12-01T15:30:05.475Z,5.67
2022-12-01T15:32:53.753Z,5.56
2022-12-01T15:35:25.985Z,5.60
2022-12-01T15:38:00.358Z,5.57
2022-12-01T15:43:31.724Z,5.20
2022-12-01T15:48:46.867Z,5.14
2022-12-01T15:51:23.627Z,5.13
2022-12-01T15:53:58.272Z,5.01
2022-12-01T15:56:55.041Z,5.06
2022-12-01T15:59:31.354Z,5.17
2022-12-01T16:02:02.102Z,5.04
2022-12-01T16:04:37.425Z,4.94
2022-12-01T16:07:09.878Z,4.94
2022-12-01T16:09:41.576Z,5.00
2022-12-01T16:12:23.543Z,5.08
2022-12-01T16:15:14.647Z,4.97
2022-12-01T16:17:46.645Z,5.01
2022-12-01T16:20:25.667Z,4.97
2022-12-01T16:22:59.988Z,4.97
2022-12-01T16:25:31.330Z,5.03
2022-12-01T16:28:02.126Z,5.02
2022-12-01T16:30:40.857Z,5.00
2022-12-01T16:33:18.220Z,5.08
2022-12-01T16:35:52.550Z,5.00
2022-12-01T16:41:23.335Z,4.94
2022-12-01T17:09:23.535Z,4.80
2022-12-01T17:50:29.368Z,4.87
2022-12-01T18:57:34.519Z,4.86
2022-12-01T19:18:36.366Z,4.98
2022-12-01T19:21:04.493Z,4.94
2022-12-01T19:23:33.146Z,4.96
2022-12-01T19:26:05.146Z,4.75
2022-12-01T19:28:33.148Z,4.69
2022-12-01T19:31:01.711Z,4.69
2022-12-01T19:33:30.951Z,4.79
2022-12-01T19:36:04.462Z,4.88
2022-12-01T19:38:32.801Z,4.82
2022-12-01T19:41:02.497Z,4.98
2022-12-01T19:43:30.221Z,4.87
2022-12-01T19:45:58.164Z,4.88
2022-12-01T19:48:26.245Z,4.89
2022-12-01T19:50:54.526Z,4.76
2022-12-01T19:53:23.718Z,4.78
2022-12-01T19:55:51.608Z,4.80
2022-12-01T19:58:19.563Z,4.80
2022-12-01T20:00:47.269Z,4.82
2022-12-01T20:03:14.995Z,4.79
2022-12-01T20:05:42.872Z,4.74
2022-12-01T20:08:13.653Z,4.77
2022-12-01T20:10:49.081Z,4.71
2022-12-01T20:13:16.762Z,4.83
2022-12-01T20:15:44.885Z,4.76
2022-12-01T20:18:14.622Z,4.83
2022-12-01T20:20:42.969Z,5.02
2022-12-01T20:23:10.796Z,4.75
2022-12-01T20:25:38.700Z,4.86
2022-12-01T20:28:07.742Z,4.60
2022-12-01T20:30:40.046Z,4.63
2022-12-01T20:33:08.016Z,4.58
2022-12-01T20:35:36.390Z,4.70
2022-12-01T20:38:04.467Z,4.64
2022-12-01T20:40:32.222Z,4.67
2022-12-01T20:43:00.073Z,4.55
2022-12-01T20:45:29.516Z,4.62
2022-12-01T20:47:57.366Z,4.55
2022-12-01T20:50:25.351Z,4.61
2022-12-01T20:52:54.017Z,4.72
2022-12-01T20:55:22.028Z,4.70
2022-12-01T20:57:49.980Z,4.62
2022-12-01T21:00:18.187Z,4.59
2022-12-01T21:02:47.924Z,4.66
2022-12-01T21:05:15.740Z,4.60
2022-12-01T21:07:43.553Z,4.57
2022-12-01T21:10:15.666Z,4.54
2022-12-01T21:13:04.779Z,4.57
2022-12-01T21:15:36.876Z,4.80
2022-12-01T21:18:10.805Z,4.82
2022-12-01T21:20:41.896Z,4.76
2022-12-01T21:23:11.496Z,4.75
2022-12-01T21:25:40.304Z,4.70
2022-12-01T21:28:14.515Z,4.67
2022-12-01T21:30:42.325Z,4.75
2022-12-01T21:33:17.803Z,4.77
2022-12-01T21:35:45.665Z,4.70
2022-12-01T21:38:20.422Z,4.62
2022-12-01T21:40:49.911Z,4.59
2022-12-01T21:43:20.024Z,4.49
2022-12-01T21:45:51.288Z,4.56
2022-12-01T21:48:23.100Z,4.50
2022-12-01T21:50:54.258Z,4.49
2022-12-01T21:53:25.330Z,4.42
2022-12-01T21:55:53.093Z,4.44
2022-12-01T21:58:25.479Z,4.46
2022-12-01T22:00:53.454Z,4.65
2022-12-01T22:03:30.333Z,4.69
2022-12-01T22:06:21.673Z,4.56
2022-12-01T22:08:49.503Z,4.64
2022-12-01T22:11:18.987Z,4.64
2022-12-01T22:13:48.394Z,4.47
2022-12-01T22:16:17.883Z,4.59
2022-12-01T22:18:48.665Z,4.55
2022-12-01T22:21:27.181Z,4.57
2022-12-01T22:24:00.324Z,4.56
2022-12-01T22:26:28.551Z,4.72
2022-12-01T22:28:57.706Z,4.69
2022-12-01T22:31:25.596Z,4.55
2022-12-01T22:34:00.173Z,4.62
2022-12-01T22:36:33.313Z,4.67
2022-12-01T22:39:01.186Z,4.59
2022-12-01T22:41:30.275Z,4.63
2022-12-01T22:43:59.642Z,4.47
2022-12-01T22:46:32.597Z,4.60
2022-12-01T22:49:03.702Z,4.54
2022-12-01T22:51:36.237Z,4.53
2022-12-01T22:54:20.988Z,4.46
2022-12-01T22:56:49.790Z,4.41
2022-12-01T22:59:19.824Z,4.37
2022-12-01T23:01:52.052Z,4.49
2022-12-01T23:04:31.310Z,4.45
2022-12-01T23:07:09.631Z,4.34
2022-12-01T23:09:39.434Z,4.15
2022-12-01T23:12:27.134Z,4.12
2022-12-01T23:14:57.839Z,4.06
2022-12-01T23:17:26.892Z,4.07
2022-12-01T23:20:01.129Z,4.06
2022-12-01T23:22:28.851Z,3.97
2022-12-01T23:24:56.409Z,4.04
2022-12-01T23:27:24.177Z,3.95
2022-12-01T23:29:52.040Z,3.94
2022-12-01T23:32:20.419Z,3.96
2022-12-01T23:34:48.209Z,3.98
2022-12-01T23:37:24.077Z,3.98
2022-12-01T23:39:52.041Z,4.00
2022-12-01T23:42:19.843Z,4.15
2022-12-01T23:44:49.616Z,4.32
2022-12-01T23:47:19.632Z,4.39
2022-12-01T23:49:48.867Z,4.57
2022-12-01T23:52:19.629Z,4.53
2022-12-01T23:54:49.398Z,4.45
2022-12-01T23:57:20.792Z,4.52
2022-12-01T23:59:49.184Z,4.34
